Miles, Iowa
Current Conditions -  °F | °C
As of 9:15 AM on Saturday 22 Nov 2014 (Local Time) from KSFY Reporting Station
Haze Haze  
Wind Chill: 35°   Ceiling: 200
Heat Index: 40°   Visibility: 0.75mi
Dew Point: 39°   Wind: 8mph
Humidity: 96%   Direction: 180°S
Pressure: 29.94"   Gusts: NA
Location:  42.05°N, 90.32°W
Report Text: KSFY 221515Z AUTO 18007KT 3/4SM BR OVC002 05/04 A2994 RMK AO2 T00460040
Loading
Personal Weather Stations






























Interactive Weather Map New forecast layout! Learn more

10-Day Weather Forecast

Advertisements
Track Severe Weather on mobile